Time;durP1;ratioP1;P1;durP2;ratioP2;P2;SDS_P1;SDS_P2;PMS_P1;PMS_P2;Temp;Humidity;BMP_temperature;BMP_pressure;BME280_temperature;BME280_humidity;BME280_pressure;Samples;Min_cycle;Max_cycle;Signal;HPM_P1;HPM_P2
2024/04/05 00:01:31;;;;;;;25.15;5.53;;;;;;;;;;4951220;28;20030;-87
2024/04/05 00:03:57;;;;;;;32.38;5.32;;;;;;;;;;4966004;28;20133;-91
2024/04/05 00:06:23;;;;;;;28.35;5.40;;;;;;;;;;4969062;28;20035;-91
2024/04/05 00:08:49;;;;;;;31.13;5.55;;;;;;;;;;4950740;28;20568;-91
2024/04/05 00:11:15;;;;;;;21.05;5.53;;;;;;;;;;4944576;28;20039;-91
2024/04/05 00:13:41;;;;;;;24.80;5.28;;;;;;;;;;4944591;28;20038;-91
2024/04/05 00:16:08;;;;;;;20.08;4.68;;;;;;;;;;4944364;28;20474;-91
2024/04/05 00:18:34;;;;;;;21.65;4.45;;;;;;;;;;4944730;28;20054;-91
2024/04/05 00:21:04;;;;;;;25.60;5.35;;;;;;;;;;4944607;28;20034;-91
2024/04/05 00:23:37;;;;;;;25.08;5.60;;;;;;;;;;4946306;28;20045;-89
2024/04/05 00:26:04;;;;;;;25.10;4.53;;;;;;;;;;4960805;28;20355;-90
2024/04/05 00:28:31;;;;;;;23.90;5.93;;;;;;;;;;4946052;28;20133;-91
2024/04/05 00:30:57;;;;;;;23.88;4.85;;;;;;;;;;4945606;28;20047;-91
2024/04/05 00:33:23;;;;;;;22.60;4.80;;;;;;;;;;4945089;28;20042;-91
2024/04/05 00:35:52;;;;;;;31.55;5.82;;;;;;;;;;4944300;28;20035;-91
2024/04/05 00:38:19;;;;;;;31.33;5.45;;;;;;;;;;4944965;28;20038;-90
2024/04/05 00:40:46;;;;;;;20.05;4.05;;;;;;;;;;4944327;28;20049;-91
2024/04/05 00:43:12;;;;;;;25.50;4.95;;;;;;;;;;4944227;28;20055;-91
2024/04/05 00:45:42;;;;;;;22.92;4.22;;;;;;;;;;4943926;28;20042;-90
2024/04/05 00:48:11;;;;;;;21.40;4.97;;;;;;;;;;4945150;28;20051;-91
2024/04/05 00:50:37;;;;;;;30.88;5.35;;;;;;;;;;4960923;28;20058;-90
2024/04/05 00:53:04;;;;;;;26.15;5.10;;;;;;;;;;4984055;28;20029;-91
2024/04/05 00:55:30;;;;;;;32.13;5.38;;;;;;;;;;4963572;28;20047;-90
2024/04/05 00:58:00;;;;;;;23.02;4.78;;;;;;;;;;4944344;28;20050;-91
2024/04/05 01:00:28;;;;;;;22.40;4.90;;;;;;;;;;4943893;28;20050;-90
2024/04/05 01:02:54;;;;;;;27.63;6.85;;;;;;;;;;4944139;28;20049;-91
2024/04/05 01:05:20;;;;;;;25.80;4.90;;;;;;;;;;4942299;28;20043;-91
2024/04/05 01:07:47;;;;;;;21.17;5.00;;;;;;;;;;4943775;28;20129;-91
2024/04/05 01:10:13;;;;;;;19.50;5.45;;;;;;;;;;4950326;28;20043;-86
2024/04/05 01:12:39;;;;;;;23.13;5.70;;;;;;;;;;4966716;28;20042;-90
2024/04/05 01:15:05;;;;;;;30.13;6.22;;;;;;;;;;4968334;28;20038;-90
2024/04/05 01:17:32;;;;;;;26.52;4.75;;;;;;;;;;4949283;28;20042;-91
2024/04/05 01:19:58;;;;;;;28.80;5.93;;;;;;;;;;4943702;28;20568;-90
2024/04/05 01:22:27;;;;;;;25.58;5.63;;;;;;;;;;4943909;28;20401;-91
2024/04/05 01:24:54;;;;;;;23.65;4.45;;;;;;;;;;4943825;28;20046;-90
2024/04/05 01:27:22;;;;;;;22.52;5.70;;;;;;;;;;4959021;28;20406;-91
2024/04/05 01:29:51;;;;;;;21.40;4.72;;;;;;;;;;4959081;28;20134;-90
2024/04/05 01:32:17;;;;;;;24.25;4.60;;;;;;;;;;4959588;28;20139;-91
2024/04/05 01:34:43;;;;;;;23.77;4.20;;;;;;;;;;4944013;28;20042;-87
2024/04/05 01:37:10;;;;;;;32.15;6.07;;;;;;;;;;4959147;28;20078;-87
2024/04/05 01:39:36;;;;;;;22.33;4.97;;;;;;;;;;4946987;28;20070;-86
2024/04/05 01:42:02;;;;;;;29.05;4.88;;;;;;;;;;4961645;28;20054;-90
2024/04/05 01:44:28;;;;;;;29.83;5.97;;;;;;;;;;4943016;28;20046;-91
2024/04/05 01:46:54;;;;;;;26.10;5.20;;;;;;;;;;4942569;28;20050;-90
2024/04/05 01:49:20;;;;;;;28.25;6.32;;;;;;;;;;4947564;28;20065;-88
2024/04/05 01:51:46;;;;;;;33.05;5.63;;;;;;;;;;4966058;28;20437;-91
2024/04/05 01:54:12;;;;;;;31.88;5.70;;;;;;;;;;4966537;28;20031;-91
2024/04/05 01:56:39;;;;;;;25.95;5.70;;;;;;;;;;4950663;28;20548;-90
2024/04/05 01:59:05;;;;;;;35.53;6.18;;;;;;;;;;4964053;28;20043;-88
2024/04/05 02:01:34;;;;;;;23.73;5.40;;;;;;;;;;4958532;28;20046;-90
2024/04/05 02:04:00;;;;;;;29.83;6.30;;;;;;;;;;4941465;28;20125;-90
2024/04/05 02:06:26;;;;;;;29.98;5.40;;;;;;;;;;4941660;28;20150;-90
2024/04/05 02:08:52;;;;;;;25.13;5.88;;;;;;;;;;4943063;28;20047;-88
2024/04/05 02:11:18;;;;;;;27.35;5.80;;;;;;;;;;4942907;28;20393;-88
2024/04/05 02:13:44;;;;;;;31.60;6.22;;;;;;;;;;4942768;28;20081;-91
2024/04/05 02:16:10;;;;;;;24.80;5.15;;;;;;;;;;4941439;28;20065;-89
2024/04/05 02:18:36;;;;;;;30.33;5.07;;;;;;;;;;4958381;28;20035;-88
2024/04/05 02:21:02;;;;;;;20.27;5.80;;;;;;;;;;4958385;28;20042;-88
2024/04/05 02:23:27;;;;;;;31.23;6.20;;;;;;;;;;4942240;28;20039;-88
2024/04/05 02:25:53;;;;;;;28.48;5.30;;;;;;;;;;4958317;28;20052;-88
2024/04/05 02:28:19;;;;;;;23.85;5.63;;;;;;;;;;4942194;28;20038;-88
2024/04/05 02:30:46;;;;;;;24.40;5.95;;;;;;;;;;4941802;28;20046;-90
2024/04/05 02:33:12;;;;;;;29.55;6.05;;;;;;;;;;4956681;28;20042;-90
2024/04/05 02:35:39;;;;;;;26.75;5.47;;;;;;;;;;4940625;28;20043;-90
2024/04/05 02:38:05;;;;;;;33.45;6.25;;;;;;;;;;4956138;28;20045;-90
2024/04/05 02:40:31;;;;;;;28.38;6.53;;;;;;;;;;4940534;28;20082;-91
2024/04/05 02:42:57;;;;;;;33.85;5.35;;;;;;;;;;4940092;28;20106;-90
2024/04/05 02:45:23;;;;;;;31.33;6.32;;;;;;;;;;4957967;28;20051;-91
2024/04/05 02:47:50;;;;;;;29.73;5.47;;;;;;;;;;4943158;28;20039;-87
2024/04/05 02:50:16;;;;;;;32.03;5.63;;;;;;;;;;4941774;28;20046;-87
2024/04/05 02:52:42;;;;;;;27.77;5.53;;;;;;;;;;4941988;28;20093;-87
2024/04/05 02:55:08;;;;;;;25.92;6.57;;;;;;;;;;4957792;28;20046;-88
2024/04/05 02:57:34;;;;;;;25.67;5.50;;;;;;;;;;4942275;28;20092;-87
2024/04/05 03:00:03;;;;;;;27.65;4.93;;;;;;;;;;4943145;28;20133;-88
2024/04/05 03:02:29;;;;;;;29.30;5.25;;;;;;;;;;4942415;28;20038;-88
2024/04/05 03:04:55;;;;;;;31.90;6.75;;;;;;;;;;4941994;28;20035;-87
2024/04/05 03:07:21;;;;;;;29.67;6.40;;;;;;;;;;4941872;28;20035;-88
2024/04/05 03:09:47;;;;;;;27.30;5.88;;;;;;;;;;4941713;28;20045;-88
2024/04/05 03:12:13;;;;;;;28.40;6.53;;;;;;;;;;4957759;28;20353;-88
2024/04/05 03:14:39;;;;;;;24.02;5.68;;;;;;;;;;4941697;28;20049;-88
2024/04/05 03:17:05;;;;;;;25.27;5.45;;;;;;;;;;4942616;28;20034;-90
2024/04/05 03:19:31;;;;;;;24.83;5.45;;;;;;;;;;4940629;28;20101;-89
2024/04/05 03:21:57;;;;;;;24.73;5.88;;;;;;;;;;4941768;28;20400;-88
2024/04/05 03:24:23;;;;;;;27.13;5.50;;;;;;;;;;4941928;28;20042;-88
2024/04/05 03:26:49;;;;;;;25.77;5.80;;;;;;;;;;4942205;28;20058;-90
2024/04/05 03:29:16;;;;;;;29.85;5.40;;;;;;;;;;4942048;28;20496;-91
2024/04/05 03:31:42;;;;;;;28.88;5.50;;;;;;;;;;4944256;28;20043;-88
2024/04/05 03:34:08;;;;;;;27.15;5.82;;;;;;;;;;4945428;28;20469;-88
2024/04/05 03:36:34;;;;;;;27.05;5.13;;;;;;;;;;4945285;28;20144;-89
2024/04/05 03:39:02;;;;;;;21.02;4.85;;;;;;;;;;4945636;28;20429;-89
2024/04/05 03:41:28;;;;;;;27.05;5.35;;;;;;;;;;4961011;28;20113;-89
2024/04/05 03:43:54;;;;;;;25.77;5.15;;;;;;;;;;4945250;28;20053;-89
2024/04/05 03:46:22;;;;;;;25.63;4.82;;;;;;;;;;4945020;28;20050;-88
2024/04/05 03:48:48;;;;;;;20.50;4.20;;;;;;;;;;4945621;28;20046;-91
2024/04/05 03:51:14;;;;;;;22.27;5.43;;;;;;;;;;4945488;28;20046;-91
2024/04/05 03:53:40;;;;;;;23.30;4.78;;;;;;;;;;4961092;28;20166;-91
2024/04/05 03:56:06;;;;;;;27.65;6.25;;;;;;;;;;4960724;28;20146;-91
2024/04/05 03:58:32;;;;;;;22.33;5.25;;;;;;;;;;4944549;28;20042;-91
2024/04/05 04:00:58;;;;;;;25.70;5.10;;;;;;;;;;4944570;28;20047;-91
2024/04/05 04:03:24;;;;;;;20.23;4.85;;;;;;;;;;4944569;28;20049;-91
2024/04/05 04:05:50;;;;;;;26.50;5.13;;;;;;;;;;4945892;28;20098;-88
2024/04/05 04:08:16;;;;;;;23.10;5.25;;;;;;;;;;4960685;28;20043;-89
2024/04/05 04:10:42;;;;;;;22.73;5.70;;;;;;;;;;4960839;28;20043;-89
2024/04/05 04:13:08;;;;;;;25.23;5.07;;;;;;;;;;4944906;28;20062;-89
2024/04/05 04:15:34;;;;;;;19.92;4.45;;;;;;;;;;4961016;28;20070;-91
2024/04/05 04:18:02;;;;;;;22.58;4.22;;;;;;;;;;4944039;28;20378;-91
2024/04/05 04:20:28;;;;;;;23.95;5.40;;;;;;;;;;4944020;28;20038;-91
2024/04/05 04:22:54;;;;;;;20.50;4.43;;;;;;;;;;4944048;28;20042;-91
2024/04/05 04:25:21;;;;;;;20.90;4.97;;;;;;;;;;4944117;28;20039;-91
2024/04/05 04:27:48;;;;;;;21.63;5.32;;;;;;;;;;4944001;28;20082;-91
2024/04/05 04:30:14;;;;;;;24.25;5.63;;;;;;;;;;4960461;28;20055;-88
2024/04/05 04:32:40;;;;;;;21.52;5.95;;;;;;;;;;4944178;28;20093;-91
2024/04/05 04:35:07;;;;;;;25.88;5.78;;;;;;;;;;4943914;28;20043;-91
2024/04/05 04:37:33;;;;;;;17.92;4.85;;;;;;;;;;4944145;28;20070;-91
2024/04/05 04:39:59;;;;;;;25.67;5.35;;;;;;;;;;4944846;28;20119;-91
2024/04/05 04:42:28;;;;;;;26.08;6.05;;;;;;;;;;4959969;28;20059;-90
2024/04/05 04:44:55;;;;;;;25.27;5.05;;;;;;;;;;4944032;28;20129;-89
2024/04/05 04:47:24;;;;;;;29.90;6.20;;;;;;;;;;4960907;28;20129;-88
2024/04/05 04:49:50;;;;;;;25.20;4.85;;;;;;;;;;4960048;28;20556;-89
2024/04/05 04:52:16;;;;;;;21.60;6.32;;;;;;;;;;4944337;28;20370;-91
2024/04/05 04:54:43;;;;;;;23.80;6.15;;;;;;;;;;4944231;28;20039;-90
2024/04/05 04:57:09;;;;;;;23.98;6.10;;;;;;;;;;4944360;28;20094;-91
2024/04/05 04:59:35;;;;;;;28.85;6.20;;;;;;;;;;4960044;28;20042;-90
2024/04/05 05:02:01;;;;;;;30.98;5.85;;;;;;;;;;4960006;28;20122;-90
2024/04/05 05:04:27;;;;;;;25.45;5.70;;;;;;;;;;4959951;28;20043;-91
2024/04/05 05:06:54;;;;;;;28.38;5.88;;;;;;;;;;4943821;28;20050;-90
2024/04/05 05:09:20;;;;;;;31.33;7.18;;;;;;;;;;4960270;28;20413;-90
2024/04/05 05:11:47;;;;;;;27.27;6.47;;;;;;;;;;4943981;28;20051;-91
2024/04/05 05:14:13;;;;;;;27.65;5.63;;;;;;;;;;4943853;28;20485;-90
2024/04/05 05:16:39;;;;;;;33.28;7.78;;;;;;;;;;4943517;28;20046;-90
2024/04/05 05:19:07;;;;;;;27.48;6.38;;;;;;;;;;4943513;28;20039;-90
2024/04/05 05:21:38;;;;;;;23.17;6.60;;;;;;;;;;4943871;28;20035;-90
2024/04/05 05:24:04;;;;;;;24.02;5.50;;;;;;;;;;4943474;28;20042;-90
2024/04/05 05:26:31;;;;;;;32.95;6.32;;;;;;;;;;4943498;28;20046;-90
2024/04/05 05:28:57;;;;;;;30.50;6.43;;;;;;;;;;4943351;28;20141;-90
2024/04/05 05:31:23;;;;;;;30.50;6.30;;;;;;;;;;4943506;28;20485;-91
2024/04/05 05:33:50;;;;;;;22.58;5.72;;;;;;;;;;4942986;28;20126;-90
2024/04/05 05:36:16;;;;;;;30.27;6.05;;;;;;;;;;4943330;28;20046;-90
2024/04/05 05:38:42;;;;;;;30.50;5.85;;;;;;;;;;4943483;28;20129;-90
2024/04/05 05:41:08;;;;;;;30.70;6.25;;;;;;;;;;4943201;28;20461;-90
2024/04/05 05:43:34;;;;;;;24.05;6.07;;;;;;;;;;4959065;28;20055;-90
2024/04/05 05:46:00;;;;;;;33.08;6.78;;;;;;;;;;4943201;28;20046;-90
2024/04/05 05:48:27;;;;;;;31.95;5.93;;;;;;;;;;4942947;28;20604;-90
2024/04/05 05:50:56;;;;;;;28.80;5.82;;;;;;;;;;4942235;28;20486;-90
2024/04/05 05:53:22;;;;;;;28.55;5.93;;;;;;;;;;4942896;28;20051;-90
2024/04/05 05:55:51;;;;;;;31.63;7.32;;;;;;;;;;4942598;28;20050;-90
2024/04/05 05:58:17;;;;;;;23.63;6.13;;;;;;;;;;4942585;28;20039;-90
2024/04/05 06:00:44;;;;;;;30.50;7.45;;;;;;;;;;4943011;28;20490;-90
2024/04/05 06:03:10;;;;;;;29.58;6.10;;;;;;;;;;4942650;28;20130;-90
2024/04/05 06:05:36;;;;;;;29.35;6.45;;;;;;;;;;4942904;28;20512;-90
2024/04/05 06:08:02;;;;;;;24.08;6.20;;;;;;;;;;4958557;28;20047;-90
2024/04/05 06:10:28;;;;;;;25.77;6.70;;;;;;;;;;4942760;28;20133;-90
2024/04/05 06:12:54;;;;;;;25.45;6.53;;;;;;;;;;4942289;28;20089;-91
2024/04/05 06:15:20;;;;;;;26.20;6.43;;;;;;;;;;4942777;28;20463;-91
2024/04/05 06:17:56;;;;;;;30.33;6.60;;;;;;;;;;4958277;28;20042;-91
2024/04/05 06:20:22;;;;;;;22.40;6.80;;;;;;;;;;4941973;28;20470;-91
2024/04/05 06:22:48;;;;;;;27.75;5.70;;;;;;;;;;4941762;28;20077;-91
2024/04/05 06:25:14;;;;;;;24.52;5.90;;;;;;;;;;4942503;28;20047;-91
2024/04/05 06:27:41;;;;;;;28.60;6.72;;;;;;;;;;4942278;28;20043;-91
2024/04/05 06:30:10;;;;;;;26.65;6.57;;;;;;;;;;4942221;28;20038;-92
2024/04/05 06:32:36;;;;;;;27.65;5.70;;;;;;;;;;4958038;28;20049;-91
2024/04/05 06:35:05;;;;;;;20.85;5.90;;;;;;;;;;4941895;28;20086;-91
2024/04/05 06:37:33;;;;;;;24.67;5.78;;;;;;;;;;4941760;28;20034;-90
2024/04/05 06:39:59;;;;;;;25.45;5.90;;;;;;;;;;4942029;28;20039;-91
2024/04/05 06:42:25;;;;;;;20.13;5.60;;;;;;;;;;4941558;28;20054;-91
2024/04/05 06:44:52;;;;;;;22.65;6.13;;;;;;;;;;4941792;28;20085;-91
2024/04/05 06:47:18;;;;;;;24.33;6.22;;;;;;;;;;4941497;28;20045;-91
2024/04/05 06:49:44;;;;;;;21.15;5.70;;;;;;;;;;4942008;28;20122;-90
2024/04/05 06:52:12;;;;;;;21.63;6.53;;;;;;;;;;4953618;28;20066;-90
2024/04/05 06:54:42;;;;;;;17.80;6.10;;;;;;;;;;4964319;28;20066;-90
2024/04/05 06:57:09;;;;;;;21.80;5.45;;;;;;;;;;4979054;28;20070;-90
2024/04/05 06:59:35;;;;;;;23.38;5.53;;;;;;;;;;4942008;28;20047;-90
2024/04/05 07:02:01;;;;;;;24.65;6.93;;;;;;;;;;4958043;28;20043;-90
2024/04/05 07:04:27;;;;;;;21.77;6.82;;;;;;;;;;4941822;28;20039;-90
2024/04/05 07:06:56;;;;;;;22.35;6.00;;;;;;;;;;4942072;28;20043;-91
2024/04/05 07:09:22;;;;;;;20.38;5.50;;;;;;;;;;4942163;28;20054;-90
2024/04/05 07:11:49;;;;;;;20.85;6.45;;;;;;;;;;4960695;28;20094;-86
2024/04/05 07:14:18;;;;;;;22.60;7.28;;;;;;;;;;4980131;28;20102;-90
2024/04/05 07:16:44;;;;;;;19.27;6.13;;;;;;;;;;4965177;28;20054;-91
2024/04/05 07:19:11;;;;;;;17.42;5.75;;;;;;;;;;4949755;28;20047;-90
2024/04/05 07:21:37;;;;;;;19.52;6.47;;;;;;;;;;4941789;28;20523;-91
2024/04/05 07:24:06;;;;;;;19.60;5.60;;;;;;;;;;4942092;28;20046;-90
2024/04/05 07:26:33;;;;;;;20.75;7.57;;;;;;;;;;4941705;28;20047;-91
2024/04/05 07:28:59;;;;;;;21.25;6.03;;;;;;;;;;4957662;28;20049;-91
2024/04/05 07:31:25;;;;;;;21.80;6.30;;;;;;;;;;4941478;28;20468;-91
2024/04/05 07:33:52;;;;;;;17.90;5.32;;;;;;;;;;4941222;28;20050;-90
2024/04/05 07:36:18;;;;;;;15.30;5.22;;;;;;;;;;4941410;28;20470;-91
2024/04/05 07:38:44;;;;;;;17.40;5.50;;;;;;;;;;4957281;28;20038;-90
2024/04/05 07:41:10;;;;;;;17.52;5.45;;;;;;;;;;4957683;28;20035;-90
2024/04/05 07:43:37;;;;;;;17.48;5.40;;;;;;;;;;4941597;28;20450;-91
2024/04/05 07:46:03;;;;;;;13.75;4.90;;;;;;;;;;4941383;28;20082;-90
2024/04/05 07:48:29;;;;;;;17.30;5.90;;;;;;;;;;4941352;28;20097;-91
2024/04/05 07:51:02;;;;;;;22.42;5.55;;;;;;;;;;4957105;28;20039;-91
2024/04/05 07:53:28;;;;;;;18.65;6.00;;;;;;;;;;4941616;28;20086;-91
2024/04/05 07:55:54;;;;;;;15.77;5.18;;;;;;;;;;4941399;28;20489;-91
2024/04/05 07:58:20;;;;;;;15.70;4.60;;;;;;;;;;4941053;28;20046;-91
2024/04/05 08:00:47;;;;;;;19.15;6.28;;;;;;;;;;4941084;28;20035;-91
2024/04/05 08:03:13;;;;;;;13.27;4.90;;;;;;;;;;4957174;28;20047;-91
2024/04/05 08:05:42;;;;;;;16.60;5.80;;;;;;;;;;4941276;28;20043;-91
2024/04/05 08:08:09;;;;;;;22.73;5.28;;;;;;;;;;4941253;28;20062;-91
2024/04/05 08:10:35;;;;;;;19.42;5.85;;;;;;;;;;4940946;28;20051;-90
2024/04/05 08:13:01;;;;;;;19.58;5.88;;;;;;;;;;4941094;28;20057;-91
2024/04/05 08:15:29;;;;;;;14.60;5.10;;;;;;;;;;4943169;28;20043;-91
2024/04/05 08:17:55;;;;;;;14.10;5.20;;;;;;;;;;4960797;28;20105;-91
2024/04/05 08:20:21;;;;;;;14.50;4.80;;;;;;;;;;4944450;28;20466;-91
2024/04/05 08:22:48;;;;;;;18.73;5.32;;;;;;;;;;4944684;28;20047;-91
2024/04/05 08:25:14;;;;;;;11.75;4.47;;;;;;;;;;4960861;28;20097;-91
2024/04/05 08:27:44;;;;;;;14.50;5.03;;;;;;;;;;4944753;28;20047;-91
2024/04/05 08:30:12;;;;;;;16.55;4.85;;;;;;;;;;4944398;28;20098;-91
2024/04/05 08:32:40;;;;;;;18.08;5.13;;;;;;;;;;4944008;28;20409;-91
2024/04/05 08:35:06;;;;;;;21.27;6.15;;;;;;;;;;4944631;28;20137;-91
2024/04/05 08:37:35;;;;;;;18.08;6.35;;;;;;;;;;4944410;28;20046;-91
2024/04/05 08:40:01;;;;;;;18.98;5.75;;;;;;;;;;4944378;28;20094;-91
2024/04/05 08:42:31;;;;;;;14.52;5.78;;;;;;;;;;4960542;28;20514;-91
2024/04/05 08:44:58;;;;;;;12.38;4.72;;;;;;;;;;4944055;28;20434;-91
2024/04/05 08:47:25;;;;;;;15.07;4.60;;;;;;;;;;4944414;28;20098;-91
2024/04/05 08:49:52;;;;;;;14.38;4.45;;;;;;;;;;4943872;28;20038;-92
2024/04/05 08:52:18;;;;;;;13.75;4.70;;;;;;;;;;4944330;28;20054;-91
2024/04/05 08:54:44;;;;;;;18.17;4.47;;;;;;;;;;4944405;28;20046;-91
2024/04/05 08:57:11;;;;;;;15.20;4.38;;;;;;;;;;4944014;28;20051;-91
2024/04/05 08:59:37;;;;;;;12.48;4.75;;;;;;;;;;4943835;28;20042;-90
2024/04/05 09:02:08;;;;;;;14.60;5.00;;;;;;;;;;4959791;28;20046;-90
2024/04/05 09:04:34;;;;;;;15.75;4.75;;;;;;;;;;4944277;28;20043;-90
2024/04/05 09:07:00;;;;;;;19.20;6.25;;;;;;;;;;4943880;28;20125;-90
2024/04/05 09:09:26;;;;;;;14.85;5.30;;;;;;;;;;4943741;28;20034;-90
2024/04/05 09:11:59;;;;;;;16.58;6.15;;;;;;;;;;4943774;28;20061;-90
2024/04/05 09:14:25;;;;;;;17.23;5.60;;;;;;;;;;4943831;28;20062;-90
2024/04/05 09:16:51;;;;;;;14.80;6.25;;;;;;;;;;4943391;28;20482;-90
2024/04/05 09:19:22;;;;;;;14.60;6.05;;;;;;;;;;4943696;28;20506;-90
2024/04/05 09:21:48;;;;;;;18.20;6.57;;;;;;;;;;4943518;28;20035;-90
2024/04/05 09:24:17;;;;;;;16.23;5.32;;;;;;;;;;4943399;28;20128;-90
2024/04/05 09:26:44;;;;;;;13.23;6.00;;;;;;;;;;4942167;28;20042;-90
2024/04/05 09:29:12;;;;;;;16.95;6.75;;;;;;;;;;4943346;28;20043;-90
2024/04/05 09:31:42;;;;;;;15.80;5.78;;;;;;;;;;4943443;28;20508;-90
2024/04/05 09:34:14;;;;;;;15.63;6.32;;;;;;;;;;4959348;28;20130;-90
2024/04/05 09:36:40;;;;;;;13.63;5.43;;;;;;;;;;4943080;28;20478;-90
2024/04/05 09:39:07;;;;;;;18.50;5.53;;;;;;;;;;4942957;28;20045;-90
2024/04/05 09:41:33;;;;;;;17.58;5.95;;;;;;;;;;4942961;28;20062;-90
2024/04/05 09:44:02;;;;;;;11.77;5.75;;;;;;;;;;4943522;28;20469;-90
2024/04/05 09:46:28;;;;;;;17.30;5.97;;;;;;;;;;4943315;28;20098;-90
2024/04/05 09:48:58;;;;;;;21.65;6.65;;;;;;;;;;4942958;28;20524;-90
2024/04/05 09:51:29;;;;;;;12.50;4.78;;;;;;;;;;4943233;28;20402;-90
2024/04/05 09:53:55;;;;;;;15.68;5.90;;;;;;;;;;4942845;28;20058;-90
2024/04/05 09:56:26;;;;;;;16.17;5.50;;;;;;;;;;4942609;28;20042;-89
2024/04/05 09:58:53;;;;;;;11.95;5.13;;;;;;;;;;4958951;28;20045;-90
2024/04/05 10:01:20;;;;;;;14.40;6.13;;;;;;;;;;4942545;28;20084;-90
2024/04/05 10:03:46;;;;;;;16.08;5.38;;;;;;;;;;4942544;28;20047;-90
2024/04/05 10:06:16;;;;;;;15.27;5.07;;;;;;;;;;4942395;28;20047;-89
2024/04/05 10:08:45;;;;;;;16.55;5.57;;;;;;;;;;4958345;28;20046;-90
2024/04/05 10:11:12;;;;;;;14.02;5.20;;;;;;;;;;4942665;28;20073;-89
2024/04/05 10:13:42;;;;;;;18.05;5.18;;;;;;;;;;4942425;28;20047;-90
2024/04/05 10:16:09;;;;;;;12.90;4.88;;;;;;;;;;4942220;28;20065;-90
2024/04/05 10:18:39;;;;;;;11.68;5.43;;;;;;;;;;4942358;28;20031;-90
2024/04/05 10:21:07;;;;;;;13.23;5.13;;;;;;;;;;4942041;28;20042;-90
2024/04/05 10:23:33;;;;;;;10.75;4.88;;;;;;;;;;4958121;28;20043;-90
2024/04/05 10:26:00;;;;;;;14.85;5.30;;;;;;;;;;4942447;28;20053;-90
2024/04/05 10:28:28;;;;;;;13.40;5.60;;;;;;;;;;4941955;28;20049;-90
2024/04/05 10:30:55;;;;;;;11.98;4.82;;;;;;;;;;4941804;28;20073;-90
2024/04/05 10:33:21;;;;;;;11.35;5.05;;;;;;;;;;4942167;28;20043;-90
2024/04/05 10:35:50;;;;;;;17.80;5.55;;;;;;;;;;4957737;28;20047;-90
2024/04/05 10:38:17;;;;;;;16.25;5.40;;;;;;;;;;4941764;28;20482;-90
2024/04/05 10:40:44;;;;;;;12.25;4.30;;;;;;;;;;4941800;28;20568;-90
2024/04/05 10:43:13;;;;;;;14.90;5.35;;;;;;;;;;4941585;28;20057;-89
2024/04/05 10:45:39;;;;;;;14.23;4.80;;;;;;;;;;4941967;28;20046;-90
2024/04/05 10:48:06;;;;;;;13.05;4.70;;;;;;;;;;4941638;28;20042;-89
2024/04/05 10:50:37;;;;;;;11.52;4.95;;;;;;;;;;4958150;28;20050;-90
2024/04/05 10:53:06;;;;;;;14.50;4.23;;;;;;;;;;4942301;28;20044;-89
2024/04/05 10:55:32;;;;;;;11.05;4.78;;;;;;;;;;4941791;28;20081;-90
2024/04/05 10:58:01;;;;;;;13.50;5.10;;;;;;;;;;4957904;28;20042;-90
2024/04/05 11:00:28;;;;;;;14.73;3.83;;;;;;;;;;4957645;28;20045;-90
2024/04/05 11:02:54;;;;;;;14.75;3.65;;;;;;;;;;4941728;28;20046;-90
2024/04/05 11:05:20;;;;;;;8.05;3.40;;;;;;;;;;4941769;28;20508;-90
2024/04/05 11:07:57;;;;;;;9.43;3.58;;;;;;;;;;4957554;28;20047;-90
2024/04/05 11:10:23;;;;;;;9.52;3.30;;;;;;;;;;4958233;28;20043;-90
2024/04/05 11:12:49;;;;;;;11.63;3.60;;;;;;;;;;4979829;28;20050;-90
2024/04/05 11:15:19;;;;;;;11.32;4.15;;;;;;;;;;4953885;28;20053;-90
2024/04/05 11:17:46;;;;;;;9.80;3.58;;;;;;;;;;4941891;28;20047;-90
2024/04/05 11:20:13;;;;;;;10.38;3.25;;;;;;;;;;4958004;28;20133;-89
2024/04/05 11:22:39;;;;;;;10.48;3.25;;;;;;;;;;4946454;28;20043;-89
2024/04/05 11:25:07;;;;;;;8.43;3.30;;;;;;;;;;4947422;28;20043;-90
2024/04/05 11:27:34;;;;;;;9.07;3.60;;;;;;;;;;4964378;28;20509;-89
2024/04/05 11:30:00;;;;;;;9.25;2.63;;;;;;;;;;4948539;28;20042;-89
2024/04/05 11:32:26;;;;;;;6.78;2.75;;;;;;;;;;4970739;28;20042;-90
2024/04/05 11:34:52;;;;;;;8.52;3.08;;;;;;;;;;4953929;28;20061;-90
2024/04/05 11:37:18;;;;;;;10.43;3.38;;;;;;;;;;4942824;28;20126;-90
2024/04/05 11:39:44;;;;;;;7.93;2.97;;;;;;;;;;4958505;28;20046;-90
2024/04/05 11:42:10;;;;;;;7.72;3.17;;;;;;;;;;4941817;28;20054;-90
2024/04/05 11:44:36;;;;;;;8.52;2.58;;;;;;;;;;4941608;28;20043;-90
2024/04/05 11:47:03;;;;;;;10.38;3.63;;;;;;;;;;4942194;28;20393;-90
2024/04/05 11:49:29;;;;;;;7.82;2.70;;;;;;;;;;4942225;28;20038;-90
2024/04/05 11:51:59;;;;;;;9.63;3.53;;;;;;;;;;4945408;28;20121;-90
2024/04/05 11:54:25;;;;;;;8.30;2.97;;;;;;;;;;4945169;28;20489;-90
2024/04/05 11:56:51;;;;;;;7.82;2.97;;;;;;;;;;4945137;28;20462;-90
2024/04/05 11:59:19;;;;;;;5.75;2.63;;;;;;;;;;4945348;28;20393;-90
2024/04/05 12:01:46;;;;;;;6.22;2.60;;;;;;;;;;4945029;28;20046;-90
2024/04/05 12:04:12;;;;;;;7.20;3.30;;;;;;;;;;4944931;28;20092;-90
2024/04/05 12:06:39;;;;;;;7.55;3.08;;;;;;;;;;4945535;28;20042;-90
2024/04/05 12:09:05;;;;;;;10.07;3.83;;;;;;;;;;4960831;28;20065;-90
2024/04/05 12:11:31;;;;;;;7.90;2.80;;;;;;;;;;4945712;28;20125;-90
2024/04/05 12:13:58;;;;;;;8.27;2.92;;;;;;;;;;4961712;28;20050;-90
2024/04/05 12:16:24;;;;;;;11.27;3.33;;;;;;;;;;4960573;28;20054;-89
2024/04/05 12:18:50;;;;;;;9.85;3.45;;;;;;;;;;4944659;28;20039;-89
2024/04/05 12:21:16;;;;;;;6.85;3.00;;;;;;;;;;4944567;28;20102;-89
2024/04/05 12:23:42;;;;;;;7.65;3.28;;;;;;;;;;4944911;28;20434;-89
2024/04/05 12:26:09;;;;;;;7.68;3.20;;;;;;;;;;4960331;28;20133;-89
2024/04/05 12:28:36;;;;;;;10.70;3.80;;;;;;;;;;4944113;28;20503;-89
2024/04/05 12:31:02;;;;;;;5.70;3.03;;;;;;;;;;4960398;28;20133;-89
2024/04/05 12:33:28;;;;;;;7.50;3.83;;;;;;;;;;4960268;28;20485;-90
2024/04/05 12:35:57;;;;;;;8.27;3.13;;;;;;;;;;4944061;28;20051;-89
2024/04/05 12:38:27;;;;;;;8.07;3.20;;;;;;;;;;4944140;28;20093;-89
2024/04/05 12:40:56;;;;;;;9.43;3.40;;;;;;;;;;4944308;28;20461;-90
2024/04/05 12:43:22;;;;;;;9.10;3.28;;;;;;;;;;4941146;29;20094;-90
2024/04/05 12:45:57;;;;;;;8.75;3.17;;;;;;;;;;4924927;29;20047;-89
2024/04/05 12:48:23;;;;;;;6.78;2.95;;;;;;;;;;4925316;29;20054;-90
2024/04/05 12:50:55;;;;;;;7.05;2.95;;;;;;;;;;4925197;29;20129;-90
2024/04/05 12:53:21;;;;;;;8.23;3.25;;;;;;;;;;4940705;29;20039;-90
2024/04/05 12:55:57;;;;;;;7.70;2.70;;;;;;;;;;4940634;29;20043;-90
2024/04/05 12:58:27;;;;;;;7.40;2.75;;;;;;;;;;4925085;29;20067;-90
2024/04/05 13:00:53;;;;;;;4.90;2.80;;;;;;;;;;4924856;29;20138;-90
2024/04/05 13:03:20;;;;;;;6.00;2.58;;;;;;;;;;4940990;29;20043;-90
2024/04/05 13:05:47;;;;;;;5.10;2.20;;;;;;;;;;4924618;29;20043;-90
2024/04/05 13:08:13;;;;;;;3.60;2.00;;;;;;;;;;4924675;29;20046;-89
2024/04/05 13:10:39;;;;;;;6.82;2.33;;;;;;;;;;4924649;29;20058;-89
2024/04/05 13:13:05;;;;;;;4.60;1.90;;;;;;;;;;4924766;29;20379;-90
2024/04/05 13:15:39;;;;;;;4.80;1.92;;;;;;;;;;4940412;29;20046;-89
2024/04/05 13:18:06;;;;;;;5.03;1.52;;;;;;;;;;4924790;29;20050;-90
2024/04/05 13:20:32;;;;;;;4.32;1.73;;;;;;;;;;4924792;29;20487;-90
2024/04/05 13:22:59;;;;;;;2.55;1.35;;;;;;;;;;4924450;29;20490;-90
2024/04/05 13:25:26;;;;;;;5.13;1.90;;;;;;;;;;4924574;29;20043;-90
2024/04/05 13:27:52;;;;;;;6.22;2.10;;;;;;;;;;4924573;29;20422;-90
2024/04/05 13:30:18;;;;;;;5.30;2.00;;;;;;;;;;4924135;29;20043;-90
2024/04/05 13:32:44;;;;;;;4.80;1.58;;;;;;;;;;4940320;29;20047;-90
2024/04/05 13:35:10;;;;;;;8.10;1.85;;;;;;;;;;4924140;29;20054;-90
2024/04/05 13:37:37;;;;;;;5.40;1.50;;;;;;;;;;4924416;29;20043;-90
2024/04/05 13:40:05;;;;;;;4.70;1.35;;;;;;;;;;4924418;29;20043;-90
2024/04/05 13:42:34;;;;;;;5.93;1.80;;;;;;;;;;4952625;28;20058;-90
2024/04/05 13:45:01;;;;;;;6.07;1.63;;;;;;;;;;4943756;28;20074;-90
2024/04/05 13:47:28;;;;;;;3.72;1.23;;;;;;;;;;4942847;28;20046;-90
2024/04/05 13:49:54;;;;;;;7.13;2.35;;;;;;;;;;4959031;28;20552;-90
2024/04/05 13:52:20;;;;;;;5.45;1.75;;;;;;;;;;4943037;28;20219;-90
2024/04/05 13:54:46;;;;;;;6.65;2.00;;;;;;;;;;4943099;28;20457;-90
2024/04/05 13:57:12;;;;;;;7.28;1.58;;;;;;;;;;4942918;28;20078;-90
2024/04/05 13:59:38;;;;;;;7.90;1.50;;;;;;;;;;4943009;28;20053;-90
2024/04/05 14:02:08;;;;;;;6.15;1.67;;;;;;;;;;4943057;28;20485;-90
2024/04/05 14:04:35;;;;;;;6.78;1.60;;;;;;;;;;4943063;28;20465;-90
2024/04/05 14:07:02;;;;;;;5.40;1.42;;;;;;;;;;4943212;28;20042;-90
2024/04/05 14:09:28;;;;;;;4.57;1.42;;;;;;;;;;4942717;28;20047;-90
2024/04/05 14:11:54;;;;;;;6.47;1.85;;;;;;;;;;4941996;28;20090;-90
2024/04/05 14:14:20;;;;;;;10.18;2.00;;;;;;;;;;4942400;28;20414;-90
2024/04/05 14:16:46;;;;;;;8.18;2.15;;;;;;;;;;4942427;28;20043;-90
2024/04/05 14:19:13;;;;;;;7.50;1.85;;;;;;;;;;4942348;28;20081;-90
2024/04/05 14:21:40;;;;;;;6.63;2.38;;;;;;;;;;4942559;28;20046;-90
2024/04/05 14:24:06;;;;;;;5.97;1.70;;;;;;;;;;4942708;28;20039;-89
2024/04/05 14:26:33;;;;;;;6.50;1.70;;;;;;;;;;4942671;28;20397;-90
2024/04/05 14:28:59;;;;;;;5.15;1.50;;;;;;;;;;4942214;28;20516;-90
2024/04/05 14:31:25;;;;;;;9.02;1.60;;;;;;;;;;4958577;28;20047;-90